createdAt,value
2022-07-25T00:02:24.133Z,6.50
2022-07-25T00:04:52.383Z,6.23
2022-07-25T00:07:24.936Z,6.27
2022-07-25T00:09:53.134Z,6.30
2022-07-25T00:12:22.140Z,5.83
2022-07-25T00:14:50.256Z,6.60
2022-07-25T00:17:18.310Z,6.53
2022-07-25T00:19:46.415Z,6.30
2022-07-25T00:22:14.428Z,6.50
2022-07-25T00:24:43.904Z,6.63
2022-07-25T00:27:11.950Z,5.90
2022-07-25T00:29:40.367Z,5.97
2022-07-25T00:32:08.661Z,6.63
2022-07-25T00:34:36.770Z,6.10
2022-07-25T00:37:04.851Z,5.50
2022-07-25T00:39:33.077Z,6.23
2022-07-25T00:42:05.997Z,6.07
2022-07-25T00:44:34.935Z,6.87
2022-07-25T00:47:03.354Z,6.00
2022-07-25T00:49:31.575Z,6.40
2022-07-25T00:51:59.880Z,6.50
2022-07-25T00:54:28.010Z,6.90
2022-07-25T00:56:56.372Z,6.27
2022-07-25T00:59:26.305Z,6.17
2022-07-25T01:01:54.669Z,6.23
2022-07-25T01:04:22.900Z,6.93
2022-07-25T01:06:51.160Z,6.20
2022-07-25T01:09:21.404Z,6.20
2022-07-25T01:11:49.572Z,6.33
2022-07-25T01:14:17.700Z,6.60
2022-07-25T01:16:47.129Z,6.37
2022-07-25T01:19:17.029Z,6.47
2022-07-25T01:21:46.573Z,6.13
2022-07-25T01:24:14.789Z,6.47
2022-07-25T01:26:42.994Z,6.70
2022-07-25T01:29:11.063Z,6.37
2022-07-25T01:31:39.286Z,6.43
2022-07-25T01:34:07.764Z,6.70
2022-07-25T01:36:36.042Z,6.50
2022-07-25T01:39:05.662Z,7.57
2022-07-25T01:41:33.784Z,6.30
2022-07-25T01:44:01.937Z,6.97
2022-07-25T01:46:30.149Z,6.77
2022-07-25T01:48:58.541Z,6.77
2022-07-25T01:51:26.677Z,6.30
2022-07-25T01:53:55.454Z,7.40
2022-07-25T01:56:24.932Z,6.47
2022-07-25T01:58:53.047Z,7.33
2022-07-25T02:01:21.699Z,7.43
2022-07-25T02:03:50.518Z,6.27
2022-07-25T02:06:19.634Z,6.03
2022-07-25T02:08:47.921Z,6.43
2022-07-25T02:11:16.273Z,6.77
2022-07-25T02:13:45.738Z,7.07
2022-07-25T02:16:14.382Z,7.10
2022-07-25T02:18:42.554Z,7.33
2022-07-25T02:21:13.769Z,6.80
2022-07-25T02:23:43.399Z,6.93
2022-07-25T02:26:12.618Z,7.20
2022-07-25T02:28:41.879Z,7.07
2022-07-25T02:31:11.452Z,6.77
2022-07-25T02:33:39.667Z,6.47
2022-07-25T02:36:09.368Z,6.80
2022-07-25T02:38:39.117Z,7.53
2022-07-25T02:41:07.926Z,6.53
2022-07-25T02:43:35.994Z,6.97
2022-07-25T02:46:04.222Z,7.30
2022-07-25T02:48:33.912Z,6.67
2022-07-25T02:51:02.037Z,6.40
2022-07-25T02:53:55.492Z,6.67
2022-07-25T02:56:18.721Z,7.07
2022-07-25T02:58:49.488Z,6.37
2022-07-25T03:01:17.671Z,6.03
2022-07-25T03:03:47.288Z,6.33
2022-07-25T03:06:15.666Z,6.40
2022-07-25T03:08:43.745Z,6.33
2022-07-25T03:11:12.921Z,6.23
2022-07-25T03:13:41.121Z,7.23
2022-07-25T03:16:09.912Z,7.00
2022-07-25T03:18:38.165Z,7.37
2022-07-25T03:21:08.413Z,6.97
2022-07-25T03:23:36.522Z,6.47
2022-07-25T03:26:04.693Z,6.83
2022-07-25T03:28:32.835Z,6.57
2022-07-25T03:31:00.952Z,7.00
2022-07-25T03:33:29.264Z,6.40
2022-07-25T03:35:57.477Z,7.17
2022-07-25T03:38:26.911Z,7.03
2022-07-25T03:40:55.119Z,7.37
2022-07-25T03:43:23.196Z,6.63
2022-07-25T03:45:51.302Z,7.10
2022-07-25T03:48:19.455Z,6.67
2022-07-25T03:50:47.536Z,6.73
2022-07-25T03:53:20.067Z,6.67
2022-07-25T03:55:49.549Z,6.77
2022-07-25T03:58:17.743Z,6.67
2022-07-25T04:00:47.891Z,7.10
2022-07-25T04:03:16.288Z,7.13
2022-07-25T04:05:47.583Z,7.17
2022-07-25T04:08:16.072Z,6.80
2022-07-25T04:10:44.133Z,6.57
2022-07-25T04:13:13.549Z,6.63
2022-07-25T04:15:41.620Z,7.53
2022-07-25T04:18:10.163Z,6.47
2022-07-25T04:20:44.643Z,7.00
2022-07-25T04:23:12.746Z,7.30
2022-07-25T04:25:41.050Z,7.03
2022-07-25T04:28:09.148Z,6.60
2022-07-25T04:30:38.729Z,6.97
2022-07-25T04:33:06.790Z,6.60
2022-07-25T04:35:34.882Z,7.33
2022-07-25T04:38:03.356Z,7.23
2022-07-25T04:40:31.749Z,7.33
2022-07-25T04:42:59.884Z,7.30
2022-07-25T04:45:28.356Z,7.07
2022-07-25T04:47:57.949Z,6.43
2022-07-25T04:50:26.234Z,6.87
2022-07-25T04:52:54.393Z,7.20
2022-07-25T04:55:23.090Z,6.13
2022-07-25T04:57:51.254Z,6.27
2022-07-25T05:00:19.836Z,6.70
2022-07-25T05:02:47.892Z,6.23
2022-07-25T05:05:21.410Z,6.70
2022-07-25T05:07:50.673Z,6.73
2022-07-25T05:10:19.042Z,6.77
2022-07-25T05:12:47.148Z,7.40
2022-07-25T05:15:15.320Z,6.67
2022-07-25T05:17:43.994Z,6.20
2022-07-25T05:20:13.690Z,6.77
2022-07-25T05:22:43.837Z,5.90
2022-07-25T05:25:12.904Z,6.17
2022-07-25T05:27:42.274Z,6.20
2022-07-25T05:30:12.781Z,7.00
2022-07-25T05:32:42.065Z,5.80
2022-07-25T05:35:11.698Z,5.80
2022-07-25T05:37:40.069Z,6.13
2022-07-25T05:40:10.291Z,6.03
2022-07-25T05:42:38.513Z,6.40
2022-07-25T05:45:08.283Z,6.27
2022-07-25T05:47:36.755Z,6.53
2022-07-25T05:50:05.903Z,6.97
2022-07-25T05:52:34.032Z,6.60
2022-07-25T05:55:02.084Z,6.63
2022-07-25T05:57:31.916Z,6.63
2022-07-25T05:59:59.971Z,5.80
2022-07-25T06:02:28.171Z,6.67
2022-07-25T06:04:56.353Z,6.50
2022-07-25T06:07:24.469Z,6.23
2022-07-25T06:09:52.588Z,6.17
2022-07-25T06:12:20.689Z,6.83
2022-07-25T06:14:54.612Z,5.77
2022-07-25T06:17:22.684Z,6.10
2022-07-25T06:19:50.809Z,6.93
2022-07-25T06:22:19.622Z,6.23
2022-07-25T06:24:47.688Z,6.23
2022-07-25T06:27:20.559Z,6.07
2022-07-25T06:29:49.897Z,5.93
2022-07-25T06:32:19.579Z,6.27
2022-07-25T06:34:47.673Z,5.37
2022-07-25T06:37:16.107Z,5.70
2022-07-25T06:39:46.062Z,6.17
2022-07-25T06:42:14.765Z,6.03
2022-07-25T06:44:43.178Z,5.73
2022-07-25T06:47:13.490Z,6.40
2022-07-25T06:49:43.727Z,5.97
2022-07-25T06:52:11.902Z,6.67
2022-07-25T06:54:40.487Z,5.87
2022-07-25T06:57:09.011Z,6.00
2022-07-25T06:59:37.163Z,6.07
2022-07-25T07:02:05.313Z,6.45
2022-07-25T07:04:33.410Z,6.00
2022-07-25T07:07:02.949Z,6.07
2022-07-25T07:09:31.118Z,5.60
2022-07-25T07:11:59.245Z,5.70
2022-07-25T07:14:28.120Z,5.83
2022-07-25T07:16:58.268Z,6.20
2022-07-25T07:19:26.335Z,6.30
2022-07-25T07:21:54.446Z,6.07
2022-07-25T07:24:25.104Z,5.57
2022-07-25T07:26:53.871Z,6.17
2022-07-25T07:29:22.387Z,5.63
2022-07-25T07:31:50.742Z,6.13
2022-07-25T07:34:19.100Z,6.17
2022-07-25T07:36:47.371Z,6.20
2022-07-25T07:39:16.609Z,5.97
2022-07-25T07:41:46.263Z,6.23
2022-07-25T07:44:14.478Z,5.90
2022-07-25T07:46:42.636Z,6.50
2022-07-25T07:49:11.502Z,6.30
2022-07-25T07:51:40.358Z,6.10
2022-07-25T07:54:28.277Z,6.00
2022-07-25T07:56:58.714Z,5.60
2022-07-25T07:59:26.842Z,5.90
2022-07-25T08:01:54.949Z,5.73
2022-07-25T08:04:23.093Z,5.83
2022-07-25T08:06:53.079Z,5.83
2022-07-25T08:09:21.253Z,5.83
2022-07-25T08:11:49.377Z,6.03
2022-07-25T08:14:19.044Z,6.43
2022-07-25T08:16:47.245Z,6.17
2022-07-25T08:19:15.293Z,6.30
2022-07-25T08:21:43.609Z,6.23
2022-07-25T08:24:15.515Z,5.83
2022-07-25T08:26:43.662Z,6.27
2022-07-25T08:29:19.157Z,6.13
2022-07-25T08:31:50.140Z,6.13
2022-07-25T08:34:19.493Z,5.73
2022-07-25T08:36:47.746Z,6.03
2022-07-25T08:39:15.905Z,5.60
2022-07-25T08:41:44.743Z,5.83
2022-07-25T08:44:15.167Z,5.90
2022-07-25T08:46:44.298Z,5.30
2022-07-25T08:49:13.975Z,5.17
2022-07-25T08:51:42.486Z,5.57
2022-07-25T08:54:11.668Z,5.47
2022-07-25T08:56:42.227Z,5.70
2022-07-25T08:59:10.772Z,5.70
2022-07-25T09:01:41.478Z,5.20
2022-07-25T09:04:10.888Z,5.30
2022-07-25T09:06:51.682Z,5.33
2022-07-25T09:09:20.033Z,5.70
2022-07-25T09:11:48.126Z,5.73
2022-07-25T09:14:16.216Z,5.63
2022-07-25T09:16:46.314Z,5.10
2022-07-25T09:19:18.075Z,4.63
2022-07-25T09:22:01.473Z,4.17
2022-07-25T09:24:30.290Z,4.43
2022-07-25T09:27:02.003Z,4.67
2022-07-25T09:29:34.969Z,4.47
2022-07-25T09:32:14.847Z,4.30
2022-07-25T09:34:45.787Z,4.63
2022-07-25T09:37:18.981Z,5.37
2022-07-25T09:39:49.435Z,4.33
2022-07-25T09:42:26.415Z,3.83
2022-07-25T09:45:06.386Z,4.13
2022-07-25T09:47:37.759Z,3.43
2022-07-25T09:50:08.523Z,3.60
2022-07-25T09:52:39.293Z,3.47
2022-07-25T09:55:10.139Z,3.43
2022-07-25T09:57:38.977Z,3.33
2022-07-25T10:00:10.136Z,2.77
2022-07-25T10:02:49.774Z,3.67
2022-07-25T10:05:32.567Z,3.67
2022-07-25T10:08:06.759Z,3.00
2022-07-25T10:10:41.269Z,3.00
2022-07-25T10:13:14.034Z,3.57
2022-07-25T10:15:49.085Z,3.72
2022-07-25T10:18:19.926Z,3.03
2022-07-25T10:20:51.032Z,2.87
2022-07-25T10:23:23.112Z,3.43
2022-07-25T10:26:03.885Z,3.28
2022-07-25T10:28:42.549Z,3.30
2022-07-25T10:31:22.042Z,3.37
2022-07-25T10:33:55.154Z,3.45
2022-07-25T10:36:24.507Z,3.20
2022-07-25T10:38:59.056Z,3.65
2022-07-25T10:41:28.847Z,3.65
2022-07-25T10:44:02.227Z,3.50
2022-07-25T10:46:32.493Z,2.92
2022-07-25T10:49:04.810Z,3.65
2022-07-25T10:51:40.947Z,4.20
2022-07-25T10:54:19.348Z,4.25
2022-07-25T10:56:57.488Z,3.60
2022-07-25T10:59:35.157Z,3.83
2022-07-25T11:02:05.537Z,3.80
2022-07-25T11:04:34.752Z,3.67
2022-07-25T11:07:10.540Z,3.42
2022-07-25T11:09:41.140Z,3.65
2022-07-25T11:12:10.785Z,3.92
2022-07-25T11:14:42.594Z,4.00
2022-07-25T11:17:15.729Z,3.72
2022-07-25T11:19:45.491Z,3.75
2022-07-25T11:22:14.184Z,3.40
2022-07-25T11:24:46.702Z,3.45
2022-07-25T11:27:24.452Z,3.25
2022-07-25T11:29:53.277Z,2.78
2022-07-25T11:32:21.876Z,3.05
2022-07-25T11:34:53.875Z,3.10
2022-07-25T11:37:22.816Z,3.22
2022-07-25T11:39:54.301Z,3.30
2022-07-25T11:42:22.915Z,3.38
2022-07-25T11:44:54.410Z,3.42
2022-07-25T11:47:30.758Z,3.33
2022-07-25T11:50:01.708Z,3.28
2022-07-25T11:52:32.973Z,3.30
2022-07-25T11:55:05.414Z,2.83
2022-07-25T11:57:35.592Z,3.58
2022-07-25T12:00:29.566Z,3.03
2022-07-25T12:03:09.409Z,3.50
2022-07-25T12:05:37.922Z,3.90
2022-07-25T12:08:12.390Z,4.50
2022-07-25T12:10:43.424Z,3.90
2022-07-25T12:13:25.455Z,3.88
2022-07-25T12:15:54.859Z,4.60
2022-07-25T12:18:23.061Z,4.43
2022-07-25T12:20:51.191Z,4.53
2022-07-25T12:23:21.649Z,4.60
2022-07-25T12:25:51.663Z,4.35
2022-07-25T12:28:19.826Z,4.38
2022-07-25T12:30:53.016Z,4.35
2022-07-25T12:33:24.248Z,4.22
2022-07-25T12:35:52.367Z,4.13
2022-07-25T12:38:20.693Z,4.53
2022-07-25T12:40:50.504Z,3.42
2022-07-25T12:43:22.683Z,3.50
2022-07-25T12:45:50.869Z,3.72
2022-07-25T12:48:18.989Z,4.03
2022-07-25T12:50:47.235Z,4.40
2022-07-25T12:53:15.364Z,4.28
2022-07-25T12:55:43.550Z,4.20
2022-07-25T12:58:15.903Z,4.50
2022-07-25T13:00:44.109Z,4.30
2022-07-25T13:03:15.442Z,4.15
2022-07-25T13:05:43.647Z,3.63
2022-07-25T13:08:11.711Z,3.92
2022-07-25T13:10:39.958Z,3.85
2022-07-25T13:13:08.135Z,4.35
2022-07-25T13:15:38.115Z,4.13
2022-07-25T13:18:06.484Z,3.55
2022-07-25T13:20:37.282Z,3.85
2022-07-25T13:23:05.550Z,4.07
2022-07-25T13:25:34.824Z,4.00
2022-07-25T13:28:04.047Z,4.30
2022-07-25T13:30:40.340Z,4.30
2022-07-25T13:33:09.990Z,4.07
2022-07-25T13:35:39.517Z,4.30
2022-07-25T13:38:10.938Z,4.22
2022-07-25T13:40:41.949Z,4.68
2022-07-25T13:43:12.489Z,4.50
2022-07-25T13:45:43.173Z,4.60
2022-07-25T13:48:28.865Z,4.57
2022-07-25T13:50:58.003Z,5.05
2022-07-25T13:53:29.961Z,4.00
2022-07-25T13:56:00.043Z,4.55
2022-07-25T13:58:28.741Z,5.20
2022-07-25T14:00:58.363Z,5.18
2022-07-25T14:03:26.529Z,5.50
2022-07-25T14:05:54.727Z,5.15
2022-07-25T14:08:26.271Z,5.65
2022-07-25T14:10:54.576Z,5.20
2022-07-25T14:13:22.691Z,5.10
2022-07-25T14:16:19.881Z,5.63
2022-07-25T14:18:48.104Z,4.83
2022-07-25T14:21:16.221Z,4.97
2022-07-25T14:23:44.328Z,4.77
2022-07-25T14:26:12.497Z,5.53
2022-07-25T14:28:40.584Z,5.50
2022-07-25T14:31:08.959Z,5.30
2022-07-25T14:33:40.111Z,4.77
2022-07-25T14:36:10.684Z,5.13
2022-07-25T14:38:38.822Z,4.87
2022-07-25T14:41:12.495Z,4.80
2022-07-25T14:43:41.521Z,4.70
2022-07-25T14:46:09.971Z,4.70
2022-07-25T14:48:40.233Z,5.20
2022-07-25T14:51:08.739Z,5.13
2022-07-25T14:53:37.340Z,4.63
2022-07-25T14:56:07.536Z,5.37
2022-07-25T14:58:36.224Z,5.47
2022-07-25T15:01:04.662Z,5.03
2022-07-25T15:03:32.893Z,5.33
2022-07-25T15:06:02.418Z,5.07
2022-07-25T15:08:30.773Z,5.10
2022-07-25T15:10:58.857Z,5.10
2022-07-25T15:13:31.882Z,4.60
2022-07-25T15:16:00.754Z,5.00
2022-07-25T15:18:29.265Z,5.30
2022-07-25T15:20:57.598Z,5.00
2022-07-25T15:23:30.315Z,5.23
2022-07-25T15:26:03.801Z,4.80
2022-07-25T15:28:33.797Z,5.20
2022-07-25T15:31:01.963Z,5.17
2022-07-25T15:33:30.392Z,4.60
2022-07-25T15:35:59.174Z,5.10
2022-07-25T15:38:30.712Z,5.00
2022-07-25T15:40:59.498Z,5.43
2022-07-25T15:43:28.207Z,5.00
2022-07-25T15:45:56.343Z,5.00
2022-07-25T15:48:24.928Z,4.63
2022-07-25T15:50:53.202Z,4.43
2022-07-25T15:53:21.334Z,4.80
2022-07-25T15:55:50.906Z,4.57
2022-07-25T15:58:18.997Z,4.97
2022-07-25T16:00:47.260Z,4.87
2022-07-25T16:03:15.722Z,5.33
2022-07-25T16:05:45.624Z,4.27
2022-07-25T16:08:14.327Z,4.57
2022-07-25T16:10:42.778Z,4.67
2022-07-25T16:13:12.207Z,4.30
2022-07-25T16:15:41.670Z,4.20
2022-07-25T16:18:09.819Z,4.40
2022-07-25T16:20:37.986Z,4.90
2022-07-25T16:23:06.103Z,4.50
2022-07-25T16:25:34.237Z,4.10
2022-07-25T16:28:02.376Z,4.80
2022-07-25T16:30:31.845Z,4.27
2022-07-25T16:33:00.313Z,3.87
2022-07-25T16:35:28.391Z,4.13
2022-07-25T16:37:56.446Z,4.43
2022-07-25T16:40:28.703Z,3.87
2022-07-25T16:42:59.598Z,4.50
2022-07-25T16:45:28.670Z,4.00
2022-07-25T16:47:58.356Z,3.93
2022-07-25T16:50:26.451Z,4.10
2022-07-25T16:52:54.849Z,4.10
2022-07-25T16:55:23.433Z,3.90
2022-07-25T16:57:51.569Z,3.80
2022-07-25T17:00:20.822Z,4.20
2022-07-25T17:02:49.648Z,3.67
2022-07-25T17:05:19.572Z,3.90
2022-07-25T17:07:57.028Z,4.17
2022-07-25T17:10:27.446Z,4.33
2022-07-25T17:12:55.647Z,4.30
2022-07-25T17:15:24.072Z,3.90
2022-07-25T17:17:52.243Z,3.70
2022-07-25T17:20:21.939Z,4.40
2022-07-25T17:22:50.056Z,4.23
2022-07-25T17:25:18.100Z,4.40
2022-07-25T17:27:46.294Z,3.90
2022-07-25T17:30:14.594Z,4.13
2022-07-25T17:32:42.694Z,4.07
2022-07-25T17:35:11.105Z,3.83
2022-07-25T17:37:42.356Z,3.60
2022-07-25T17:40:11.853Z,3.87
2022-07-25T17:42:45.063Z,3.53
2022-07-25T17:45:14.416Z,3.77
2022-07-25T17:47:43.451Z,3.60
2022-07-25T17:50:12.176Z,4.00
2022-07-25T17:52:41.657Z,3.70
2022-07-25T17:55:11.974Z,4.00
2022-07-25T17:57:43.062Z,4.73
2022-07-25T18:00:14.132Z,3.97
2022-07-25T18:02:42.574Z,4.47
2022-07-25T18:05:10.959Z,3.80
2022-07-25T18:07:45.118Z,4.17
2022-07-25T18:10:14.740Z,3.70
2022-07-25T18:12:43.037Z,4.33
2022-07-25T18:15:14.259Z,3.97
2022-07-25T18:17:43.745Z,4.17
2022-07-25T18:20:39.873Z,3.67
2022-07-25T18:23:09.492Z,3.30
2022-07-25T18:25:37.869Z,3.90
2022-07-25T18:28:06.984Z,3.00
2022-07-25T18:30:35.110Z,3.10
2022-07-25T18:33:03.183Z,2.93
2022-07-25T18:35:31.305Z,3.07
2022-07-25T18:37:59.452Z,2.63
2022-07-25T18:40:29.429Z,3.27
2022-07-25T18:42:57.523Z,3.00
2022-07-25T18:45:25.923Z,3.70
2022-07-25T18:47:55.133Z,3.30
2022-07-25T18:50:23.215Z,2.70
2022-07-25T18:52:51.263Z,2.80
2022-07-25T18:55:19.386Z,2.67
2022-07-25T18:57:48.956Z,2.43
2022-07-25T19:00:17.839Z,2.70
2022-07-25T19:02:46.505Z,3.10
2022-07-25T19:05:14.941Z,3.10
2022-07-25T19:07:43.384Z,2.93
2022-07-25T19:10:12.429Z,2.60
2022-07-25T19:12:40.662Z,2.40
2022-07-25T19:15:10.953Z,2.77
2022-07-25T19:17:39.461Z,2.20
2022-07-25T19:20:11.106Z,2.40
2022-07-25T19:22:39.382Z,2.70
2022-07-25T19:25:11.785Z,2.60
2022-07-25T19:27:41.146Z,2.20
2022-07-25T19:30:17.197Z,2.10
2022-07-25T19:32:47.137Z,2.07
2022-07-25T19:35:15.579Z,2.67
2022-07-25T19:37:43.669Z,2.00
2022-07-25T19:40:13.074Z,2.23
2022-07-25T19:42:42.529Z,2.40
2022-07-25T19:45:12.536Z,2.03
2022-07-25T19:47:40.631Z,1.90
2022-07-25T19:50:09.796Z,2.00
2022-07-25T19:52:38.210Z,2.00
2022-07-25T19:55:07.562Z,1.83
2022-07-25T19:57:38.686Z,2.17
2022-07-25T20:00:08.693Z,2.00
2022-07-25T20:02:41.709Z,1.70
2022-07-25T20:05:11.761Z,2.03
2022-07-25T20:07:43.184Z,2.10
2022-07-25T20:10:11.728Z,2.37
2022-07-25T20:12:41.485Z,1.83
2022-07-25T20:15:10.229Z,2.03
2022-07-25T20:17:39.689Z,1.63
2022-07-25T20:20:09.218Z,1.90
2022-07-25T20:22:38.420Z,1.80
2022-07-25T20:25:08.523Z,1.70
2022-07-25T20:27:42.108Z,1.80
2022-07-25T20:30:12.403Z,1.87
2022-07-25T20:32:41.896Z,1.87
2022-07-25T20:35:09.956Z,1.90
2022-07-25T20:37:38.196Z,1.60
2022-07-25T20:40:08.939Z,2.00
2022-07-25T20:42:38.180Z,2.20
2022-07-25T20:45:08.053Z,1.70
2022-07-25T20:47:36.130Z,1.87
2022-07-25T20:50:06.548Z,1.70
2022-07-25T20:52:34.648Z,2.10
2022-07-25T20:55:06.770Z,1.57
2022-07-25T20:57:35.477Z,1.50
2022-07-25T21:00:07.375Z,1.70
2022-07-25T21:02:38.916Z,2.00
2022-07-25T21:05:09.969Z,2.03
2022-07-25T21:07:38.036Z,1.53
2022-07-25T21:10:07.409Z,1.60
2022-07-25T21:12:35.613Z,1.57
2022-07-25T21:15:03.788Z,1.60
2022-07-25T21:17:31.853Z,1.70
2022-07-25T21:20:00.401Z,1.50
2022-07-25T21:22:30.816Z,1.60
2022-07-25T21:24:59.045Z,1.60
2022-07-25T21:27:27.136Z,1.60
2022-07-25T21:29:55.347Z,1.70
2022-07-25T21:32:23.508Z,1.20
2022-07-25T21:34:51.914Z,1.87
2022-07-25T21:37:20.008Z,1.60
2022-07-25T21:39:49.431Z,1.63
2022-07-25T21:42:17.816Z,1.80
2022-07-25T21:44:46.480Z,1.50
2022-07-25T21:47:14.630Z,1.70
2022-07-25T21:50:00.580Z,1.57
2022-07-25T21:52:31.334Z,1.37
2022-07-25T21:55:06.455Z,1.47
2022-07-25T21:57:35.984Z,1.83
2022-07-25T22:00:33.519Z,1.37
2022-07-25T22:03:26.752Z,1.57
2022-07-25T22:05:54.989Z,1.70
2022-07-25T22:08:23.092Z,1.70
2022-07-25T22:10:53.079Z,1.57
2022-07-25T22:13:21.364Z,1.67
2022-07-25T22:15:49.524Z,1.50
2022-07-25T22:18:17.621Z,1.67
2022-07-25T22:20:45.715Z,1.80
2022-07-25T22:23:13.771Z,2.07
2022-07-25T22:25:41.843Z,1.83
2022-07-25T22:28:14.226Z,1.40
2022-07-25T22:30:42.728Z,1.60
2022-07-25T22:33:10.774Z,1.13
2022-07-25T22:35:39.499Z,1.90
2022-07-25T22:38:09.042Z,1.80
2022-07-25T22:40:37.545Z,1.50
2022-07-25T22:43:05.635Z,1.57
2022-07-25T22:45:37.615Z,1.53
2022-07-25T22:48:08.278Z,1.67
2022-07-25T22:50:36.418Z,1.30
2022-07-25T22:53:04.611Z,1.23
2022-07-25T22:55:32.710Z,1.37
2022-07-25T22:58:00.829Z,1.80
2022-07-25T23:00:29.025Z,1.23
2022-07-25T23:02:58.612Z,1.37
2022-07-25T23:05:26.775Z,1.40
2022-07-25T23:07:54.977Z,1.60
2022-07-25T23:10:23.025Z,1.43
2022-07-25T23:12:51.068Z,1.53
2022-07-25T23:15:19.183Z,1.40
2022-07-25T23:17:47.201Z,1.40
2022-07-25T23:20:16.634Z,1.27
2022-07-25T23:22:46.561Z,1.17
2022-07-25T23:25:19.611Z,1.17
2022-07-25T23:27:47.764Z,1.20
2022-07-25T23:30:16.945Z,1.30
2022-07-25T23:32:45.110Z,1.40
2022-07-25T23:35:13.162Z,1.13
2022-07-25T23:37:42.802Z,1.40
2022-07-25T23:40:13.027Z,1.00
2022-07-25T23:42:41.137Z,0.90
2022-07-25T23:45:11.567Z,0.90
2022-07-25T23:47:40.721Z,0.93
2022-07-25T23:50:12.499Z,1.10
2022-07-25T23:52:42.187Z,0.90
2022-07-25T23:55:11.155Z,1.23
2022-07-25T23:57:39.207Z,0.87
